Wind From: 20-06-2018 11:00 Until: 22:00 warning for: Wind Level: Yellow info button
suomi:
Tuulivaroitus maa-alueille: Länsituuli on voimakasta keskipäivästä alkaen, tuulen nopeus puuskissa 15 m/s.

svenska:
Vindvarning för landområden: Från och med middagen är den västliga vinden kraftigt, i vindbyarna 15 m/s.

english:
Wind warning for land areas: From noon on, strong winds from west may bring strong gusts of 15 m/s. 


Thunder radar more information blitzortung!


Löydät sääaseman tiedot myös:

European Weather Network

Finland Weather Exchange

Weather Underground

AWEKAS



Weather Underground säähistoriasivu

Päivittäin yhteenveto Helmikuu 17, 2017 Yksiköt:  Englantilaiset    Metriset   Molemmat
« Edellinen Päivä
Seuraava Päivä »
Päivittäin Viikoittain Kuukausittain Vuosittain Mukautettu
  Korkea: Matala: Keskiarvo:
Lämpötila: TemperatureC °F -1.3 °F 1.3 °F
Kastepiste: DewpointC °F -2.2 °F -0.2 °F
Kosteus: Humidity % 80 % 89 %
Tuulen nopeus: WindSpeedKMH mph 0.0 mph 3.2 mph
Tuulenpuuska: WindSpeedGustKMH mph - -
Tuuli:- - WSW
Ilmanpaine: PressurehPa in 1002.6 in -
Sade: 0.0 in    
Historical Graphs
 
 
Taulukkotiedot Helmikuu 17, 2017
Aika Lämpötila Kastepiste Ilmanpaine Tuuli Tuulen nopeus Tuulenpuuska Kosteus Sademäärä (tunneittain)
TemperatureC °F DewpointC °F PressurehPa in Calm     Humidity % HourlyPrecipMM in
00:00 -0.4 °F -1.4 °F 1005.6 in SSW 4.8 mph 11.3 mph 93 % 0.0 in
00:45 -0.4 °F -1.4 °F 1005.6 in SW 3.2 mph 9.7 mph 93 % 0.0 in
01:00 -0.5 °F -1.3 °F 1005.3 in SW 3.2 mph 8.0 mph 94 % 0.0 in
01:15 -0.5 °F -1.3 °F 1005.0 in SW 3.2 mph 8.0 mph 94 % 0.0 in
01:30 -0.5 °F -1.3 °F 1005.0 in SW 3.2 mph 8.0 mph 94 % 0.0 in
01:45 -0.6 °F -1.4 °F 1005.0 in SW 3.2 mph 8.0 mph 94 % 0.0 in
02:00 -0.6 °F -0.6 °F 1004.6 in SW 1.6 mph 8.0 mph 100 % 0.0 in
02:15 -0.6 °F -1.5 °F 1004.6 in SSW 4.8 mph 14.5 mph 94 % 0.0 in
02:30 -0.6 °F -1.5 °F 1004.3 in SSW 4.8 mph 9.7 mph 94 % 0.0 in
02:45 -0.7 °F -1.4 °F 1004.3 in SSW 4.8 mph 12.9 mph 95 % 0.0 in
03:00 -0.7 °F -1.4 °F 1004.3 in SSW 4.8 mph 14.5 mph 95 % 0.0 in
03:15 -0.7 °F -1.4 °F 1004.3 in SSW 4.8 mph 9.7 mph 95 % 0.0 in
03:30 -0.8 °F -1.5 °F 1004.3 in SSW 4.8 mph 11.3 mph 95 % 0.0 in
03:45 -0.8 °F -1.5 °F 1004.3 in SSW 1.6 mph 8.0 mph 95 % 0.0 in
04:00 -0.9 °F -1.6 °F 1003.9 in SW 1.6 mph 8.0 mph 95 % 0.0 in
04:15 -0.9 °F -1.6 °F 1003.9 in Calm   3.2 mph 95 % 0.0 in
04:30 -1.1 °F -1.8 °F 1003.9 in SW 3.2 mph 8.0 mph 95 % 0.0 in
04:45 -1.2 °F -1.9 °F 1003.6 in SSW 3.2 mph 9.7 mph 95 % 0.0 in
05:00 -1.2 °F -1.9 °F 1003.6 in SSW 3.2 mph 11.3 mph 95 % 0.0 in
05:15 -1.3 °F -1.8 °F 1003.6 in SSW 4.8 mph 11.3 mph 96 % 0.0 in
05:30 -1.2 °F -1.8 °F 1003.6 in SW 1.6 mph 9.7 mph 96 % 0.0 in
05:45 -1.2 °F -1.8 °F 1003.3 in SSW 4.8 mph 11.3 mph 96 % 0.0 in
06:00 -1.2 °F -1.7 °F 1003.3 in SSW 3.2 mph 11.3 mph 96 % 0.0 in
06:15 -1.1 °F -1.7 °F 1002.9 in SSW 4.8 mph 8.0 mph 96 % 0.0 in
06:30 -1.1 °F -1.6 °F 1002.9 in SSW 1.6 mph 6.4 mph 96 % 0.0 in
06:45 -1.0 °F -1.6 °F 1003.3 in SW 1.6 mph 4.8 mph 96 % 0.0 in
07:00 -0.9 °F -1.5 °F 1003.3 in SSW 3.2 mph 8.0 mph 96 % 0.0 in
07:15 -0.9 °F -1.4 °F 1003.3 in SSW 1.6 mph 6.4 mph 96 % 0.0 in
07:30 -0.8 °F -1.4 °F 1002.9 in SSW 1.6 mph 9.7 mph 96 % 0.0 in
07:45 -0.7 °F -1.3 °F 1002.9 in SSW 1.6 mph 8.0 mph 96 % 0.0 in
08:00 -0.6 °F -1.2 °F 1002.9 in South 1.6 mph 9.7 mph 96 % 0.0 in
08:15 -0.5 °F -1.1 °F 1002.9 in SSW 3.2 mph 9.7 mph 96 % 0.0 in
08:30 -0.3 °F -0.9 °F 1002.6 in SSW 4.8 mph 9.7 mph 96 % 0.0 in
08:45 -0.3 °F -0.8 °F 1002.6 in SSW 1.6 mph 8.0 mph 96 % 0.0 in
09:00 -0.2 °F -0.8 °F 1002.6 in SW 1.6 mph 9.7 mph 96 % 0.0 in
09:15 -0.1 °F -0.7 °F 1002.6 in SSW 3.2 mph 9.7 mph 96 % 0.0 in
09:30 0.0 °F -0.4 °F 1002.6 in SSW 3.2 mph 9.7 mph 97 % 0.0 in
09:45 0.1 °F -0.3 °F 1002.6 in SSW 3.2 mph 9.7 mph 97 % 0.0 in
10:00 0.2 °F -0.3 °F 1002.6 in SSW 3.2 mph 8.0 mph 97 % 0.0 in
10:15 0.5 °F 0.1 °F 1002.9 in SSW 3.2 mph 16.1 mph 97 % 0.0 in
10:30 0.8 °F 0.4 °F 1002.9 in SW 3.2 mph 9.7 mph 97 % 0.0 in
10:45 1.0 °F 0.6 °F 1002.6 in SSW 3.2 mph 9.7 mph 97 % 0.0 in
11:00 1.2 °F 0.6 °F 1002.9 in SSW 3.2 mph 9.7 mph 96 % 0.0 in
11:15 1.5 °F 1.1 °F 1002.6 in SSW 3.2 mph 6.4 mph 97 % 0.0 in
11:30 2.0 °F 1.4 °F 1002.6 in SSW 3.2 mph 8.0 mph 96 % 0.0 in
11:45 2.7 °F 1.9 °F 1002.6 in WSW 1.6 mph 9.7 mph 95 % 0.0 in
12:00 3.4 °F 2.3 °F 1002.6 in SW 4.8 mph 14.5 mph 92 % 0.0 in
12:15 4.1 °F 2.5 °F 1002.6 in WSW 3.2 mph 11.3 mph 89 % 0.0 in
12:30 4.5 °F 2.5 °F 1002.6 in West 4.8 mph 14.5 mph 87 % 0.0 in
12:45 4.7 °F 2.5 °F 1002.6 in WNW 4.8 mph 14.5 mph 86 % 0.0 in
13:00 4.9 °F 2.6 °F 1002.6 in West 4.8 mph 20.9 mph 85 % 0.0 in
13:15 5.0 °F 3.3 °F 1002.6 in West 3.2 mph 12.9 mph 89 % 0.0 in
13:30 5.2 °F 2.5 °F 1002.6 in WNW 4.8 mph 16.1 mph 83 % 0.0 in
13:45 5.3 °F 2.5 °F 1002.6 in NW 6.4 mph 14.5 mph 82 % 0.0 in
14:00 5.5 °F 2.5 °F 1002.6 in WNW 6.4 mph 16.1 mph 81 % 0.0 in
14:15 5.4 °F 2.4 °F 1002.9 in WNW 8.0 mph 22.5 mph 81 % 0.0 in
14:30 5.3 °F 2.3 °F 1002.9 in WNW 4.8 mph 14.5 mph 81 % 0.0 in
14:45 5.3 °F 2.2 °F 1002.9 in NW 6.4 mph 14.5 mph 80 % 0.0 in
15:00 5.4 °F 2.2 °F 1003.3 in NW 4.8 mph 14.5 mph 80 % 0.0 in
15:15 5.2 °F 2.0 °F 1003.3 in WNW 4.8 mph 16.1 mph 80 % 0.0 in
15:30 4.9 °F 1.9 °F 1003.3 in WNW 4.8 mph 14.5 mph 81 % 0.0 in
15:45 4.9 °F 1.9 °F 1003.6 in WNW 4.8 mph 12.9 mph 81 % 0.0 in
16:00 4.8 °F 1.7 °F 1003.6 in WNW 4.8 mph 24.1 mph 80 % 0.0 in
16:15 4.6 °F 1.6 °F 1003.6 in WNW 4.8 mph 12.9 mph 81 % 0.0 in
16:30 4.4 °F 1.5 °F 1003.6 in WNW 6.4 mph 17.7 mph 81 % 0.0 in
16:45 4.3 °F 1.3 °F 1003.9 in WNW 6.4 mph 14.5 mph 81 % 0.0 in
17:00 4.1 °F 1.3 °F 1003.9 in WNW 3.2 mph 14.5 mph 82 % 0.0 in
17:15 3.7 °F 1.0 °F 1004.3 in West 3.2 mph 16.1 mph 83 % 0.0 in
17:30 3.3 °F 0.8 °F 1004.3 in West 1.6 mph 11.3 mph 84 % 0.0 in
17:45 3.0 °F 0.7 °F 1004.6 in WNW 1.6 mph 6.4 mph 85 % 0.0 in
18:00 2.7 °F 0.6 °F 1004.6 in Calm   6.4 mph 86 % 0.0 in
18:15 2.3 °F 0.3 °F 1004.6 in WSW 1.6 mph 8.0 mph 87 % 0.0 in
18:30 2.2 °F 0.2 °F 1005.0 in West 3.2 mph 9.7 mph 87 % 0.0 in
18:45 1.9 °F 0.0 °F 1005.3 in WNW 1.6 mph 4.8 mph 87 % 0.0 in
19:00 1.7 °F -0.1 °F 1005.3 in WNW 1.6 mph 11.3 mph 88 % 0.0 in
19:15 1.6 °F -0.2 °F 1005.3 in WNW 3.2 mph 9.7 mph 88 % 0.0 in
19:30 1.4 °F -0.4 °F 1005.6 in NW 1.6 mph 4.8 mph 88 % 0.0 in
19:45 1.3 °F -0.6 °F 1005.6 in West 3.2 mph 9.7 mph 87 % 0.0 in
20:00 1.2 °F -0.9 °F 1005.6 in WNW 1.6 mph 8.0 mph 86 % 0.0 in
20:15 1.1 °F -0.9 °F 1006.0 in WNW 1.6 mph 8.0 mph 87 % 0.0 in
20:30 0.8 °F -1.1 °F 1006.0 in WNW 1.6 mph 8.0 mph 87 % 0.0 in
20:45 0.7 °F -1.4 °F 1006.0 in Calm   8.0 mph 86 % 0.0 in
21:00 0.6 °F -1.4 °F 1006.0 in West 1.6 mph 9.7 mph 87 % 0.0 in
21:30 0.9 °F -1.2 °F 1006.3 in WNW 3.2 mph 14.5 mph 86 % 0.0 in
21:45 0.9 °F -1.3 °F 1006.3 in WNW 1.6 mph 6.4 mph 85 % 0.0 in
22:00 0.7 °F -1.4 °F 1006.7 in NW 1.6 mph 11.3 mph 86 % 0.0 in
22:15 0.4 °F -1.6 °F 1006.7 in Calm     86 % 0.0 in
22:30 0.1 °F -2.0 °F 1006.7 in Calm   3.2 mph 86 % 0.0 in
22:45 -0.1 °F -2.2 °F 1006.7 in West 1.6 mph 14.5 mph 86 % 0.0 in
23:00 0.1 °F -2.1 °F 1006.7 in West 1.6 mph 12.9 mph 85 % 0.0 in
23:15 0.4 °F -1.9 °F 1007.0 in WSW 3.2 mph 11.3 mph 84 % 0.0 in
23:30 0.5 °F -2.1 °F 1007.0 in West 4.8 mph 11.3 mph 83 % 0.0 in
23:45 0.5 °F -2.1 °F 1007.0 in West 4.8 mph 14.5 mph 83 % 0.0 in
Esan sääasema
Terveisin Weather Underground - 2.75 mb

Alkuperäinen skripti  Jim McMurry - jmcmurry@mwt.net Sovitettu myös templatelle  Wim van der Kuil - Leuven-Template.eu

Laitteet joita käytämme:

Sääasema
Davis VP2

Sääasemaohjelma
Cumulus

Sääaseman tietokone
Asus EeePC

Palveluntarjoaja
Suncomet

Davis VP2

Cumulus

Asus EeePC

Suncomet